createdAt,value
2018-08-09T00:00:30.109Z,23.52
2018-08-09T00:02:58.185Z,23.71
2018-08-09T00:05:26.457Z,23.64
2018-08-09T00:07:54.199Z,23.49
2018-08-09T00:10:22.202Z,23.51
2018-08-09T00:12:50.580Z,23.52
2018-08-09T00:15:18.956Z,23.39
2018-08-09T00:17:47.235Z,23.20
2018-08-09T00:20:15.505Z,23.14
2018-08-09T00:22:43.773Z,22.96
2018-08-09T00:25:12.086Z,23.06
2018-08-09T00:27:40.327Z,23.17
2018-08-09T00:30:08.398Z,23.35
2018-08-09T00:32:36.677Z,23.26
2018-08-09T00:35:04.854Z,23.22
2018-08-09T00:37:33.087Z,23.20
2018-08-09T00:40:01.207Z,23.15
2018-08-09T00:42:29.362Z,23.25
2018-08-09T00:44:57.641Z,23.22
2018-08-09T00:47:25.822Z,23.25
2018-08-09T00:49:53.890Z,23.26
2018-08-09T00:52:22.079Z,23.28
2018-08-09T00:54:50.226Z,23.32
2018-08-09T00:57:18.309Z,23.19
2018-08-09T00:59:46.486Z,23.12
2018-08-09T01:02:14.758Z,23.02
2018-08-09T01:04:42.921Z,22.92
2018-08-09T01:07:11.096Z,23.01
2018-08-09T01:09:39.277Z,23.06
2018-08-09T01:12:07.550Z,23.11
2018-08-09T01:14:35.830Z,23.05
2018-08-09T01:17:03.961Z,22.77
2018-08-09T01:19:32.291Z,22.92
2018-08-09T01:22:00.546Z,22.92
2018-08-09T01:24:28.728Z,22.97
2018-08-09T01:26:56.997Z,22.83
2018-08-09T01:29:25.221Z,22.81
2018-08-09T01:31:53.339Z,22.78
2018-08-09T01:34:21.518Z,22.83
2018-08-09T01:36:49.689Z,22.86
2018-08-09T01:39:17.966Z,22.88
2018-08-09T01:41:56.886Z,22.79
2018-08-09T01:44:24.963Z,22.84
2018-08-09T01:46:53.121Z,22.90
2018-08-09T01:49:21.211Z,22.86
2018-08-09T01:51:49.386Z,22.86
2018-08-09T01:54:17.555Z,22.89
2018-08-09T01:56:45.921Z,22.80
2018-08-09T01:59:14.149Z,22.84
2018-08-09T02:01:42.261Z,22.86
2018-08-09T02:04:10.334Z,22.89
2018-08-09T02:06:38.522Z,22.83
2018-08-09T02:09:08.577Z,22.82
2018-08-09T02:11:36.912Z,22.80
2018-08-09T02:14:05.190Z,22.90
2018-08-09T02:16:33.362Z,22.90
2018-08-09T02:19:01.521Z,22.94
2018-08-09T02:21:29.804Z,22.81
2018-08-09T02:23:57.978Z,22.89
2018-08-09T02:26:25.698Z,22.87
2018-08-09T02:28:53.913Z,22.85
2018-08-09T02:31:22.093Z,22.96
2018-08-09T02:33:50.031Z,22.91
2018-08-09T02:36:18.138Z,22.80
2018-08-09T02:38:46.405Z,22.92
2018-08-09T02:41:14.583Z,22.85
2018-08-09T02:43:42.632Z,22.90
2018-08-09T02:46:10.926Z,22.94
2018-08-09T02:48:39.102Z,22.98
2018-08-09T02:51:07.139Z,22.75
2018-08-09T02:53:35.233Z,22.76
2018-08-09T02:56:03.414Z,22.55
2018-08-09T02:58:31.481Z,22.53
2018-08-09T03:00:59.657Z,22.61
2018-08-09T03:03:27.831Z,22.70
2018-08-09T03:05:55.997Z,22.68
2018-08-09T03:08:24.074Z,22.52
2018-08-09T03:10:52.146Z,22.61
2018-08-09T03:13:19.878Z,22.70
2018-08-09T03:15:48.073Z,22.63
2018-08-09T03:18:16.149Z,22.73
2018-08-09T03:20:44.113Z,22.74
2018-08-09T03:23:12.173Z,22.64
2018-08-09T03:25:40.367Z,22.63
2018-08-09T03:28:08.625Z,22.61
2018-08-09T03:30:36.614Z,22.66
2018-08-09T03:33:04.783Z,22.50
2018-08-09T03:35:32.955Z,22.43
2018-08-09T03:38:01.234Z,22.41
2018-08-09T03:40:29.506Z,22.44
2018-08-09T03:42:57.778Z,22.51
2018-08-09T03:45:26.045Z,22.41
2018-08-09T03:47:54.123Z,22.42
2018-08-09T03:50:22.401Z,22.51
2018-08-09T03:52:50.667Z,22.42
2018-08-09T03:55:18.742Z,22.50
2018-08-09T03:57:46.926Z,22.46
2018-08-09T04:00:14.881Z,22.50
2018-08-09T04:02:43.061Z,22.52
2018-08-09T04:05:11.437Z,22.46
2018-08-09T04:07:39.947Z,22.44
2018-08-09T04:10:08.402Z,22.51
2018-08-09T04:12:36.574Z,22.47
2018-08-09T04:15:06.335Z,22.49
2018-08-09T04:17:34.353Z,22.39
2018-08-09T04:20:02.623Z,22.18
2018-08-09T04:22:31.002Z,21.99
2018-08-09T04:24:59.998Z,21.87
2018-08-09T04:27:28.274Z,21.94
2018-08-09T04:29:56.434Z,21.97
2018-08-09T04:32:24.623Z,22.12
2018-08-09T04:34:52.794Z,22.31
2018-08-09T04:37:20.534Z,22.38
2018-08-09T04:39:48.269Z,22.47
2018-08-09T04:42:16.003Z,22.49
2018-08-09T04:44:43.747Z,22.54
2018-08-09T04:47:11.540Z,22.60
2018-08-09T04:49:39.282Z,22.64
2018-08-09T04:52:07.085Z,22.60
2018-08-09T04:54:34.825Z,22.60
2018-08-09T04:57:02.541Z,22.68
2018-08-09T04:59:30.242Z,22.77
2018-08-09T05:01:58.006Z,22.86
2018-08-09T05:04:26.188Z,22.93
2018-08-09T05:06:54.326Z,22.99
2018-08-09T05:09:22.095Z,22.93
2018-08-09T05:11:49.953Z,22.99
2018-08-09T05:14:18.134Z,23.12
2018-08-09T05:16:46.205Z,23.24
2018-08-09T05:19:14.477Z,23.39
2018-08-09T05:21:42.757Z,23.49
2018-08-09T05:24:11.018Z,23.32
2018-08-09T05:26:39.441Z,23.42
2018-08-09T05:29:07.677Z,23.34
2018-08-09T05:31:35.850Z,23.57
2018-08-09T05:34:04.155Z,23.55
2018-08-09T05:36:32.500Z,23.69
2018-08-09T05:39:00.778Z,23.68
2018-08-09T05:41:28.545Z,23.88
2018-08-09T05:43:56.731Z,23.88
2018-08-09T05:46:24.885Z,24.00
2018-08-09T05:48:53.082Z,23.92
2018-08-09T05:51:21.246Z,24.03
2018-08-09T05:53:49.518Z,24.11
2018-08-09T05:56:17.573Z,24.27
2018-08-09T05:58:45.753Z,24.37
2018-08-09T06:01:13.820Z,24.38
2018-08-09T06:03:42.281Z,24.53
2018-08-09T06:06:10.477Z,24.66
2018-08-09T06:08:38.554Z,24.61
2018-08-09T06:11:06.705Z,24.65
2018-08-09T06:13:34.834Z,24.68
2018-08-09T06:16:03.169Z,24.71
2018-08-09T06:18:31.556Z,24.80
2018-08-09T06:20:59.735Z,24.92
2018-08-09T06:23:27.884Z,25.02
2018-08-09T06:25:56.164Z,24.93
2018-08-09T06:28:23.994Z,24.97
2018-08-09T06:30:52.106Z,25.01
2018-08-09T06:33:20.517Z,25.15
2018-08-09T06:35:48.653Z,25.39
2018-08-09T06:38:17.046Z,25.43
2018-08-09T06:40:45.205Z,25.38
2018-08-09T06:43:13.498Z,25.60
2018-08-09T06:45:41.870Z,25.66
2018-08-09T06:48:10.142Z,25.76
2018-08-09T06:50:38.409Z,25.96
2018-08-09T06:53:06.506Z,25.97
2018-08-09T06:55:34.764Z,26.12
2018-08-09T06:58:02.921Z,26.04
2018-08-09T07:00:31.006Z,26.09
2018-08-09T07:02:59.388Z,26.03
2018-08-09T07:05:27.450Z,25.94
2018-08-09T07:07:55.629Z,25.96
2018-08-09T07:10:23.910Z,26.28
2018-08-09T07:12:52.333Z,26.32
2018-08-09T07:15:20.662Z,26.39
2018-08-09T07:17:48.924Z,26.53
2018-08-09T07:20:17.145Z,26.68
2018-08-09T07:22:45.476Z,26.67
2018-08-09T07:25:13.626Z,26.75
2018-08-09T07:27:41.739Z,26.99
2018-08-09T07:30:11.233Z,26.97
2018-08-09T07:32:39.550Z,27.05
2018-08-09T07:35:08.550Z,27.02
2018-08-09T07:37:36.787Z,27.08
2018-08-09T07:40:06.108Z,27.08
2018-08-09T07:42:34.345Z,26.95
2018-08-09T07:45:02.731Z,26.99
2018-08-09T07:47:30.904Z,27.11
2018-08-09T07:49:58.621Z,27.16
2018-08-09T07:52:26.386Z,27.33
2018-08-09T07:54:54.098Z,27.29
2018-08-09T07:57:21.861Z,27.22
2018-08-09T07:59:49.591Z,27.50
2018-08-09T08:02:17.326Z,27.54
2018-08-09T08:04:45.062Z,27.39
2018-08-09T08:07:12.854Z,27.52
2018-08-09T08:09:40.590Z,27.73
2018-08-09T08:12:08.597Z,27.57
2018-08-09T08:14:36.315Z,27.27
2018-08-09T08:17:04.076Z,27.52
2018-08-09T08:19:31.825Z,27.79
2018-08-09T08:21:59.585Z,27.88
2018-08-09T08:24:27.303Z,27.99
2018-08-09T08:26:55.181Z,27.90
2018-08-09T08:29:22.922Z,28.05
2018-08-09T08:31:51.323Z,28.19
2018-08-09T08:34:19.057Z,27.88
2018-08-09T08:36:46.793Z,28.04
2018-08-09T08:39:14.521Z,28.10
2018-08-09T08:41:42.386Z,28.14
2018-08-09T08:44:10.050Z,28.19
2018-08-09T08:46:37.798Z,28.20
2018-08-09T08:49:06.570Z,28.31
2018-08-09T08:51:34.293Z,28.49
2018-08-09T08:54:02.053Z,28.44
2018-08-09T08:56:29.802Z,28.54
2018-08-09T08:58:57.582Z,28.66
2018-08-09T09:01:25.388Z,28.61
2018-08-09T09:03:53.272Z,28.71
2018-08-09T09:06:21.090Z,28.73
2018-08-09T09:08:48.895Z,28.71
2018-08-09T09:11:16.629Z,28.61
2018-08-09T09:13:44.375Z,28.70
2018-08-09T09:16:12.198Z,28.76
2018-08-09T09:18:39.947Z,28.80
2018-08-09T09:21:07.797Z,28.87
2018-08-09T09:23:36.032Z,28.77
2018-08-09T09:26:03.837Z,28.83
2018-08-09T09:28:31.556Z,28.91
2018-08-09T09:30:59.305Z,28.89
2018-08-09T09:33:27.089Z,28.76
2018-08-09T09:35:54.841Z,28.66
2018-08-09T09:38:22.613Z,28.78
2018-08-09T09:40:50.341Z,28.87
2018-08-09T09:43:18.086Z,28.82
2018-08-09T09:45:45.923Z,28.58
2018-08-09T09:48:13.709Z,28.53
2018-08-09T09:50:41.466Z,28.66
2018-08-09T09:53:09.181Z,28.67
2018-08-09T09:55:37.549Z,28.53
2018-08-09T09:58:05.850Z,28.65
2018-08-09T10:00:39.413Z,28.82
2018-08-09T10:03:07.412Z,29.09
2018-08-09T10:05:35.142Z,29.18
2018-08-09T10:08:02.889Z,29.25
2018-08-09T10:10:30.621Z,29.19
2018-08-09T10:12:58.357Z,29.09
2018-08-09T10:15:26.090Z,29.20
2018-08-09T10:17:53.930Z,29.20
2018-08-09T10:20:21.722Z,28.91
2018-08-09T10:22:49.450Z,29.00
2018-08-09T10:25:17.212Z,28.98
2018-08-09T10:27:45.026Z,28.92
2018-08-09T10:30:12.785Z,29.10
2018-08-09T10:32:40.511Z,29.06
2018-08-09T10:35:08.342Z,29.22
2018-08-09T10:37:36.085Z,29.29
2018-08-09T10:40:04.082Z,29.27
2018-08-09T10:42:31.793Z,29.30
2018-08-09T10:44:59.524Z,29.36
2018-08-09T10:47:27.283Z,29.54
2018-08-09T10:49:55.056Z,29.37
2018-08-09T10:52:22.788Z,29.43
2018-08-09T10:54:51.242Z,29.31
2018-08-09T10:57:19.124Z,29.30
2018-08-09T10:59:46.850Z,29.25
2018-08-09T11:02:14.642Z,29.23
2018-08-09T11:04:42.382Z,29.25
2018-08-09T11:07:10.149Z,29.48
2018-08-09T11:09:37.875Z,29.53
2018-08-09T11:12:05.639Z,29.49
2018-08-09T11:14:33.442Z,29.47
2018-08-09T11:17:01.194Z,29.62
2018-08-09T11:19:28.930Z,29.73
2018-08-09T11:21:56.733Z,29.87
2018-08-09T11:24:24.466Z,29.73
2018-08-09T11:26:52.198Z,29.97
2018-08-09T11:29:19.962Z,30.03
2018-08-09T11:31:47.681Z,29.90
2018-08-09T11:34:15.401Z,29.97
2018-08-09T11:36:43.518Z,29.85
2018-08-09T11:39:12.243Z,29.69
2018-08-09T11:41:40.009Z,29.65
2018-08-09T11:44:08.894Z,29.93
2018-08-09T11:46:37.057Z,29.96
2018-08-09T11:49:05.338Z,29.97
2018-08-09T11:51:33.569Z,30.03
2018-08-09T11:54:01.685Z,29.87
2018-08-09T11:56:29.931Z,29.85
2018-08-09T11:58:58.133Z,30.00
2018-08-09T12:01:26.441Z,29.97
2018-08-09T12:03:54.497Z,30.05
2018-08-09T12:06:22.864Z,30.00
2018-08-09T12:08:51.026Z,29.91
2018-08-09T12:11:19.224Z,29.94
2018-08-09T12:13:47.473Z,30.19
2018-08-09T12:16:15.762Z,29.97
2018-08-09T12:18:44.133Z,29.99
2018-08-09T12:21:12.102Z,29.92
2018-08-09T12:23:40.522Z,30.08
2018-08-09T12:26:08.862Z,30.14
2018-08-09T12:28:36.914Z,30.15
2018-08-09T12:31:04.722Z,30.17
2018-08-09T12:33:32.534Z,30.17
2018-08-09T12:36:00.572Z,30.10
2018-08-09T12:38:28.397Z,30.03
2018-08-09T12:40:56.150Z,30.05
2018-08-09T12:43:23.970Z,30.04
2018-08-09T12:45:51.858Z,30.10
2018-08-09T12:48:19.661Z,30.17
2018-08-09T12:50:47.725Z,30.10
2018-08-09T12:53:15.997Z,30.12
2018-08-09T12:55:43.793Z,30.21
2018-08-09T12:58:12.148Z,30.27
2018-08-09T13:00:39.921Z,30.22
2018-08-09T13:03:08.035Z,30.42
2018-08-09T13:05:35.836Z,30.61
2018-08-09T13:08:03.751Z,30.45
2018-08-09T13:10:31.503Z,30.48
2018-08-09T13:12:59.294Z,30.26
2018-08-09T13:15:27.059Z,30.28
2018-08-09T13:17:55.364Z,30.42
2018-08-09T13:20:23.542Z,30.31
2018-08-09T13:22:51.821Z,30.30
2018-08-09T13:25:20.089Z,30.39
2018-08-09T13:27:48.474Z,30.53
2018-08-09T13:30:17.106Z,30.33
2018-08-09T13:32:45.431Z,30.41
2018-08-09T13:35:13.710Z,30.49
2018-08-09T13:37:42.226Z,30.34
2018-08-09T13:40:10.774Z,30.32
2018-08-09T13:42:39.708Z,30.42
2018-08-09T13:45:09.825Z,30.30
2018-08-09T13:47:38.312Z,30.35
2018-08-09T13:50:07.727Z,30.48
2018-08-09T13:52:36.055Z,30.33
2018-08-09T13:55:04.777Z,30.61
2018-08-09T13:57:32.998Z,30.40
2018-08-09T14:00:01.383Z,30.36
2018-08-09T14:02:29.760Z,30.28
2018-08-09T14:04:57.991Z,30.25
2018-08-09T14:07:26.189Z,30.31
2018-08-09T14:09:54.373Z,30.33
2018-08-09T14:12:22.758Z,30.48
2018-08-09T14:14:51.034Z,30.40
2018-08-09T14:17:19.413Z,30.39
2018-08-09T14:19:47.681Z,30.32
2018-08-09T14:22:16.066Z,30.31
2018-08-09T14:24:44.422Z,30.23
2018-08-09T14:27:12.403Z,30.23
2018-08-09T14:29:40.789Z,30.36
2018-08-09T14:32:09.957Z,30.70
2018-08-09T14:34:38.057Z,30.47
2018-08-09T14:37:06.633Z,30.44
2018-08-09T14:39:34.814Z,30.48
2018-08-09T14:42:03.321Z,30.45
2018-08-09T14:44:31.465Z,30.37
2018-08-09T14:46:59.833Z,30.22
2018-08-09T14:49:28.109Z,30.35
2018-08-09T14:51:56.394Z,30.38
2018-08-09T14:54:24.664Z,30.53
2018-08-09T14:56:52.941Z,30.20
2018-08-09T14:59:21.222Z,30.25
2018-08-09T15:01:49.297Z,30.25
2018-08-09T15:04:17.364Z,30.42
2018-08-09T15:06:45.630Z,30.49
2018-08-09T15:09:14.018Z,30.45
2018-08-09T15:11:42.190Z,30.54
2018-08-09T15:14:10.698Z,30.67
2018-08-09T15:16:38.938Z,30.61
2018-08-09T15:19:06.985Z,30.56
2018-08-09T15:21:35.285Z,30.53
2018-08-09T15:24:03.567Z,30.29
2018-08-09T15:26:31.531Z,30.19
2018-08-09T15:28:59.915Z,30.34
2018-08-09T15:31:28.083Z,30.29
2018-08-09T15:33:55.851Z,30.29
2018-08-09T15:36:24.227Z,30.27
2018-08-09T15:38:52.497Z,30.27
2018-08-09T15:41:20.783Z,30.53
2018-08-09T15:43:49.162Z,30.26
2018-08-09T15:46:17.421Z,30.23
2018-08-09T15:48:45.710Z,30.36
2018-08-09T15:51:13.976Z,30.31
2018-08-09T15:53:42.053Z,30.42
2018-08-09T15:56:10.426Z,30.02
2018-08-09T15:58:38.707Z,29.98
2018-08-09T16:01:07.088Z,29.98
2018-08-09T16:03:35.353Z,30.24
2018-08-09T16:06:03.747Z,29.99
2018-08-09T16:08:32.047Z,29.94
2018-08-09T16:11:00.180Z,30.11
2018-08-09T16:13:28.570Z,29.67
2018-08-09T16:15:56.909Z,29.68
2018-08-09T16:18:25.210Z,29.62
2018-08-09T16:20:53.484Z,29.76
2018-08-09T16:23:21.671Z,29.77
2018-08-09T16:25:50.050Z,29.68
2018-08-09T16:28:18.219Z,29.64
2018-08-09T16:30:46.495Z,29.63
2018-08-09T16:33:14.862Z,29.66
2018-08-09T16:35:43.277Z,29.46
2018-08-09T16:38:11.524Z,29.32
2018-08-09T16:40:39.902Z,29.27
2018-08-09T16:43:08.073Z,29.37
2018-08-09T16:45:36.256Z,29.60
2018-08-09T16:48:04.422Z,29.77
2018-08-09T16:50:32.329Z,29.37
2018-08-09T16:53:00.461Z,29.20
2018-08-09T16:55:28.829Z,29.13
2018-08-09T16:57:57.127Z,29.09
2018-08-09T17:00:25.408Z,28.95
2018-08-09T17:02:54.317Z,29.22
2018-08-09T17:05:24.540Z,29.04
2018-08-09T17:07:52.453Z,28.77
2018-08-09T17:10:22.428Z,28.58
2018-08-09T17:12:50.314Z,28.70
2018-08-09T17:15:21.480Z,28.52
2018-08-09T17:17:49.550Z,28.48
2018-08-09T17:20:21.678Z,28.40
2018-08-09T17:22:49.582Z,28.31
2018-08-09T17:25:17.802Z,28.27
2018-08-09T17:27:46.564Z,28.23
2018-08-09T17:30:15.821Z,28.18
2018-08-09T17:32:44.137Z,28.04
2018-08-09T17:35:13.489Z,28.03
2018-08-09T17:37:41.573Z,27.98
2018-08-09T17:40:17.453Z,27.96
2018-08-09T17:42:45.937Z,27.90
2018-08-09T17:45:14.418Z,27.79
2018-08-09T17:47:42.950Z,27.69
2018-08-09T17:50:11.041Z,27.62
2018-08-09T17:52:39.337Z,27.58
2018-08-09T17:55:09.830Z,27.62
2018-08-09T17:57:37.954Z,27.64
2018-08-09T18:00:08.661Z,27.58
2018-08-09T18:02:37.162Z,27.56
2018-08-09T18:05:06.389Z,27.41
2018-08-09T18:07:34.795Z,27.30
2018-08-09T18:10:03.105Z,27.26
2018-08-09T18:12:31.020Z,27.22
2018-08-09T18:14:59.255Z,27.25
2018-08-09T18:17:27.531Z,27.20
2018-08-09T18:19:55.905Z,27.10
2018-08-09T18:22:24.173Z,27.11
2018-08-09T18:24:52.457Z,27.11
2018-08-09T18:27:20.762Z,27.12
2018-08-09T18:29:49.122Z,27.07
2018-08-09T18:32:17.391Z,27.10
2018-08-09T18:34:45.765Z,27.07
2018-08-09T18:37:14.146Z,26.91
2018-08-09T18:39:42.522Z,26.89
2018-08-09T18:42:10.793Z,26.92
2018-08-09T18:44:39.074Z,26.87
2018-08-09T18:47:07.341Z,26.87
2018-08-09T18:49:35.671Z,26.85
2018-08-09T18:52:03.507Z,26.87
2018-08-09T18:54:31.858Z,26.79
2018-08-09T18:57:00.030Z,26.76
2018-08-09T18:59:27.938Z,26.72
2018-08-09T19:01:56.200Z,26.60
2018-08-09T19:04:24.358Z,26.51
2018-08-09T19:06:52.342Z,26.57
2018-08-09T19:09:20.690Z,26.43
2018-08-09T19:11:48.769Z,26.42
2018-08-09T19:14:16.946Z,26.44
2018-08-09T19:16:45.119Z,26.42
2018-08-09T19:19:13.273Z,26.45
2018-08-09T19:21:41.455Z,26.45
2018-08-09T19:24:09.844Z,26.39
2018-08-09T19:26:38.122Z,26.26
2018-08-09T19:29:06.282Z,26.31
2018-08-09T19:31:34.566Z,26.24
2018-08-09T19:34:02.842Z,26.30
2018-08-09T19:36:31.109Z,26.16
2018-08-09T19:38:59.357Z,26.13
2018-08-09T19:41:27.455Z,26.14
2018-08-09T19:43:55.730Z,26.04
2018-08-09T19:46:24.113Z,26.02
2018-08-09T19:48:52.481Z,26.07
2018-08-09T19:51:20.761Z,26.03
2018-08-09T19:53:48.596Z,25.94
2018-08-09T19:56:16.901Z,25.76
2018-08-09T19:58:45.082Z,26.00
2018-08-09T20:01:13.450Z,25.87
2018-08-09T20:03:41.530Z,25.78
2018-08-09T20:06:09.823Z,25.82
2018-08-09T20:08:38.082Z,25.75
2018-08-09T20:11:06.463Z,25.72
2018-08-09T20:13:34.743Z,25.84
2018-08-09T20:16:02.866Z,25.82
2018-08-09T20:18:31.286Z,25.75
2018-08-09T20:20:59.553Z,25.77
2018-08-09T20:23:27.725Z,25.77
2018-08-09T20:25:56.014Z,25.66
2018-08-09T20:28:24.285Z,25.82
2018-08-09T20:30:52.553Z,25.85
2018-08-09T20:33:20.425Z,25.79
2018-08-09T20:35:48.809Z,25.58
2018-08-09T20:38:16.982Z,25.51
2018-08-09T20:40:44.750Z,25.46
2018-08-09T20:43:13.026Z,25.43
2018-08-09T20:45:41.094Z,25.35
2018-08-09T20:48:09.466Z,25.43
2018-08-09T20:50:37.630Z,25.44
2018-08-09T20:53:06.020Z,25.47
2018-08-09T20:55:34.234Z,25.58
2018-08-09T20:58:02.366Z,25.60
2018-08-09T21:00:31.969Z,25.62
2018-08-09T21:03:00.807Z,25.69
2018-08-09T21:05:31.238Z,25.67
2018-08-09T21:07:59.565Z,25.60
2018-08-09T21:10:28.090Z,25.52
2018-08-09T21:12:56.205Z,25.49
2018-08-09T21:15:24.451Z,25.43
2018-08-09T21:17:52.760Z,25.50
2018-08-09T21:20:21.022Z,25.40
2018-08-09T21:22:49.773Z,25.36
2018-08-09T21:25:18.205Z,25.39
2018-08-09T21:27:46.949Z,25.49
2018-08-09T21:30:16.681Z,25.52
2018-08-09T21:32:45.429Z,25.38
2018-08-09T21:35:13.663Z,25.41
2018-08-09T21:37:42.341Z,25.30
2018-08-09T21:40:11.393Z,25.27
2018-08-09T21:42:39.816Z,25.13
2018-08-09T21:45:15.623Z,25.01
2018-08-09T21:47:43.844Z,25.09
2018-08-09T21:50:13.891Z,25.01
2018-08-09T21:52:42.333Z,25.02
2018-08-09T21:55:11.281Z,24.87
2018-08-09T21:57:39.497Z,24.78
2018-08-09T22:00:14.498Z,24.75
2018-08-09T22:02:42.819Z,24.67
2018-08-09T22:05:16.417Z,24.48
2018-08-09T22:07:49.973Z,24.53
2018-08-09T22:10:23.374Z,24.21
2018-08-09T22:12:56.882Z,24.20
2018-08-09T22:15:30.542Z,24.29
2018-08-09T22:18:04.344Z,24.10
2018-08-09T22:20:37.806Z,23.99
2018-08-09T22:23:05.985Z,23.97
2018-08-09T22:25:34.253Z,24.20
2018-08-09T22:28:02.421Z,24.08
2018-08-09T22:30:30.206Z,23.93
2018-08-09T22:32:58.365Z,24.05
2018-08-09T22:35:26.654Z,23.90
2018-08-09T22:37:54.825Z,23.99
2018-08-09T22:40:23.181Z,23.84
2018-08-09T22:42:51.377Z,23.80
2018-08-09T22:45:19.646Z,23.89
2018-08-09T22:47:48.025Z,23.81
2018-08-09T22:50:16.289Z,23.81
2018-08-09T22:52:44.576Z,23.94
2018-08-09T22:55:12.852Z,24.05
2018-08-09T22:57:41.216Z,24.11
2018-08-09T23:00:22.501Z,24.04
2018-08-09T23:02:51.135Z,24.03
2018-08-09T23:05:19.944Z,24.11
2018-08-09T23:07:48.259Z,24.05
2018-08-09T23:10:16.429Z,24.07
2018-08-09T23:12:44.631Z,24.11
2018-08-09T23:15:12.879Z,24.11
2018-08-09T23:17:41.089Z,24.12
2018-08-09T23:20:09.531Z,24.08
2018-08-09T23:22:37.662Z,24.05
2018-08-09T23:25:09.257Z,23.93
2018-08-09T23:27:37.525Z,23.93
2018-08-09T23:30:07.033Z,23.98
2018-08-09T23:32:35.568Z,23.92
2018-08-09T23:35:04.640Z,23.85
2018-08-09T23:37:32.891Z,23.80
2018-08-09T23:40:01.171Z,23.84
2018-08-09T23:42:29.310Z,23.92
2018-08-09T23:44:57.507Z,23.76
2018-08-09T23:47:25.778Z,23.77
2018-08-09T23:49:53.957Z,23.86
2018-08-09T23:52:22.126Z,23.81
2018-08-09T23:54:50.297Z,23.92
2018-08-09T23:57:18.673Z,23.85
2018-08-09T23:59:46.836Z,23.78
